Time;durP1;ratioP1;P1;durP2;ratioP2;P2;SDS_P1;SDS_P2;PMS_P1;PMS_P2;Temp;Humidity;BMP_temperature;BMP_pressure;BME280_temperature;BME280_humidity;BME280_pressure;Samples;Min_cycle;Max_cycle;Signal;HPM_P1;HPM_P2
2022/01/24 00:03:57;;;;;;;56.88;20.10;;;;;;;;;;8434967;28;20055;-74
2022/01/24 00:08:01;;;;;;;40.90;17.17;;;;;;;;;;8434800;28;20135;-73
2022/01/24 00:12:15;;;;;;;38.28;15.05;;;;;;;;;;8434713;28;20047;-74
2022/01/24 00:16:25;;;;;;;266.60;73.90;;;;;;;;;;8435052;28;20048;-74
2022/01/24 00:29:11;;;;;;;41.83;14.60;;;;;;;;;;8434366;28;20056;-73
2022/01/24 00:33:14;;;;;;;71.10;24.55;;;;;;;;;;8434407;28;20044;-73
2022/01/24 00:37:16;;;;;;;44.55;19.65;;;;;;;;;;8433584;28;20048;-73
2022/01/24 00:41:21;;;;;;;26.95;16.00;;;;;;;;;;8433975;28;20048;-74
2022/01/24 00:45:34;;;;;;;42.40;15.77;;;;;;;;;;8433682;28;20044;-74
2022/01/24 00:49:53;;;;;;;57.40;21.55;;;;;;;;;;8433711;28;20044;-73
2022/01/24 00:54:42;;;;;;;52.92;22.40;;;;;;;;;;8433510;28;20055;-73
2022/01/24 00:58:27;;;;;;;26.60;11.75;;;;;;;;;;8433135;28;20051;-73
2022/01/24 01:02:29;;;;;;;64.30;25.30;;;;;;;;;;8433112;28;20044;-73
2022/01/24 01:06:32;;;;;;;55.63;19.52;;;;;;;;;;8432920;28;20043;-73
2022/01/24 01:19:16;;;;;;;225.73;64.38;;;;;;;;;;8432695;28;20067;-74
2022/01/24 01:23:19;;;;;;;344.63;112.15;;;;;;;;;;8432468;28;20044;-74
2022/01/24 01:27:25;;;;;;;93.93;34.08;;;;;;;;;;8432206;28;20048;-74
2022/01/24 01:31:39;;;;;;;36.88;14.60;;;;;;;;;;8432719;28;20048;-75
2022/01/24 01:35:56;;;;;;;64.85;20.63;;;;;;;;;;8440670;28;20054;-73
2022/01/24 01:40:38;;;;;;;27.38;9.75;;;;;;;;;;8449004;28;20044;-73
2022/01/24 01:53:47;;;;;;;48.58;19.02;;;;;;;;;;8450406;28;20466;-73
2022/01/24 01:57:49;;;;;;;38.13;13.82;;;;;;;;;;8450370;28;20092;-74
2022/01/24 02:01:52;;;;;;;34.97;12.48;;;;;;;;;;8446416;28;20395;-74
2022/01/24 02:05:57;;;;;;;31.02;12.55;;;;;;;;;;8461848;28;20406;-75
2022/01/24 02:10:00;;;;;;;27.73;16.20;;;;;;;;;;8461910;28;20039;-73
2022/01/24 02:14:05;;;;;;;42.15;18.13;;;;;;;;;;8464749;28;20443;-73
2022/01/24 02:18:15;;;;;;;30.40;16.15;;;;;;;;;;8464528;28;20044;-74
2022/01/24 02:26:48;;;;;;;38.20;13.25;;;;;;;;;;8464433;28;20047;-74
2022/01/24 02:31:06;;;;;;;23.20;10.15;;;;;;;;;;8464151;28;20086;-74
2022/01/24 02:35:09;;;;;;;29.67;13.15;;;;;;;;;;8465302;28;20043;-73
2022/01/24 02:39:35;;;;;;;46.53;18.48;;;;;;;;;;8464005;28;20086;-73
2022/01/24 02:52:22;;;;;;;35.30;13.77;;;;;;;;;;8461111;28;20043;-73
2022/01/24 02:56:26;;;;;;;37.95;15.52;;;;;;;;;;8460443;28;20036;-73
2022/01/24 03:00:29;;;;;;;35.03;18.17;;;;;;;;;;8465460;28;20043;-73
2022/01/24 03:04:31;;;;;;;49.65;23.65;;;;;;;;;;8469857;28;20551;-72
2022/01/24 03:08:37;;;;;;;44.90;19.23;;;;;;;;;;8468471;28;20048;-73
2022/01/24 03:12:44;;;;;;;21.92;11.82;;;;;;;;;;8469408;28;20035;-73
2022/01/24 03:16:47;;;;;;;33.30;13.43;;;;;;;;;;8470134;28;20048;-73
2022/01/24 03:20:50;;;;;;;32.30;11.57;;;;;;;;;;8470045;28;20044;-74
2022/01/24 03:24:52;;;;;;;35.03;14.32;;;;;;;;;;8470028;28;20107;-74
2022/01/24 03:28:57;;;;;;;31.67;12.75;;;;;;;;;;8469784;28;20055;-73
2022/01/24 03:33:00;;;;;;;34.05;16.17;;;;;;;;;;8469933;28;20059;-74
2022/01/24 03:37:02;;;;;;;49.35;16.17;;;;;;;;;;8469642;28;20058;-73
2022/01/24 03:41:05;;;;;;;37.22;18.27;;;;;;;;;;8469849;28;20044;-74
2022/01/24 03:45:11;;;;;;;41.83;19.08;;;;;;;;;;8469817;28;20126;-73
2022/01/24 03:49:45;;;;;;;24.40;11.80;;;;;;;;;;8469397;28;20536;-73
2022/01/24 03:53:45;;;;;;;26.08;11.70;;;;;;;;;;8469185;28;20046;-73
2022/01/24 03:57:47;;;;;;;32.58;13.32;;;;;;;;;;8468901;28;20044;-73
2022/01/24 04:01:51;;;;;;;24.58;11.25;;;;;;;;;;8469419;28;20043;-74
2022/01/24 04:05:54;;;;;;;50.65;20.60;;;;;;;;;;8468800;28;20055;-73
2022/01/24 04:10:01;;;;;;;30.70;15.48;;;;;;;;;;8469059;28;20112;-73
2022/01/24 04:14:25;;;;;;;51.15;20.38;;;;;;;;;;8469120;28;20047;-73
2022/01/24 04:18:36;;;;;;;37.83;15.45;;;;;;;;;;8468411;28;20511;-73
2022/01/24 04:22:48;;;;;;;19.85;10.45;;;;;;;;;;8468308;28;20545;-74
2022/01/24 04:26:50;;;;;;;20.92;10.73;;;;;;;;;;8468518;28;20376;-72
2022/01/24 04:30:53;;;;;;;35.35;16.33;;;;;;;;;;8467868;28;20470;-73
2022/01/24 04:34:57;;;;;;;29.75;12.40;;;;;;;;;;8467893;28;20048;-73
2022/01/24 04:39:00;;;;;;;19.17;11.88;;;;;;;;;;8468228;28;20054;-73
2022/01/24 04:43:24;;;;;;;28.98;13.20;;;;;;;;;;8467850;28;20097;-73
2022/01/24 04:47:32;;;;;;;17.98;9.20;;;;;;;;;;8467509;28;20047;-73
2022/01/24 04:51:50;;;;;;;38.78;15.70;;;;;;;;;;8467602;28;20067;-74
2022/01/24 04:55:53;;;;;;;28.33;10.95;;;;;;;;;;8467884;28;20096;-74
2022/01/24 04:59:58;;;;;;;19.40;8.57;;;;;;;;;;8467640;28;20044;-75
2022/01/24 05:04:01;;;;;;;17.42;9.02;;;;;;;;;;8467009;28;20294;-74
2022/01/24 05:08:06;;;;;;;24.50;7.55;;;;;;;;;;8466982;28;20055;-73
2022/01/24 05:12:16;;;;;;;21.75;9.82;;;;;;;;;;8466892;28;20093;-73
2022/01/24 05:25:00;;;;;;;26.48;11.10;;;;;;;;;;8465958;28;20040;-73
2022/01/24 05:29:03;;;;;;;32.65;12.30;;;;;;;;;;8466076;28;20056;-73
2022/01/24 05:33:06;;;;;;;21.10;10.60;;;;;;;;;;8465993;28;20048;-73
2022/01/24 05:37:08;;;;;;;39.03;16.30;;;;;;;;;;8466373;28;20047;-75
2022/01/24 05:41:12;;;;;;;24.70;11.57;;;;;;;;;;8464382;28;20043;-73
2022/01/24 05:45:15;;;;;;;35.70;15.23;;;;;;;;;;8448609;28;20074;-74
2022/01/24 05:49:18;;;;;;;38.15;15.75;;;;;;;;;;8448185;28;20100;-75
2022/01/24 05:53:20;;;;;;;22.88;11.75;;;;;;;;;;8439255;28;20048;-74
2022/01/24 05:57:24;;;;;;;36.67;14.88;;;;;;;;;;8455132;28;20052;-74
2022/01/24 06:01:27;;;;;;;21.88;10.45;;;;;;;;;;8458518;28;20047;-74
2022/01/24 06:05:29;;;;;;;25.25;12.63;;;;;;;;;;8426802;28;20048;-75
2022/01/24 06:09:32;;;;;;;58.45;17.15;;;;;;;;;;8450561;28;20055;-73
2022/01/24 06:13:36;;;;;;;87.55;34.25;;;;;;;;;;8444151;28;20105;-73
2022/01/24 06:17:39;;;;;;;32.55;16.17;;;;;;;;;;8437192;28;20555;-73
2022/01/24 06:21:44;;;;;;;59.33;21.52;;;;;;;;;;8432971;28;20051;-73
2022/01/24 06:25:47;;;;;;;48.85;16.88;;;;;;;;;;8444892;28;20048;-73
2022/01/24 06:29:51;;;;;;;45.70;17.67;;;;;;;;;;8440058;28;20077;-73
2022/01/24 06:33:54;;;;;;;163.38;35.40;;;;;;;;;;8429542;28;20060;-73
2022/01/24 06:37:56;;;;;;;228.38;44.17;;;;;;;;;;8434296;28;20122;-73
2022/01/24 06:42:10;;;;;;;48.70;16.65;;;;;;;;;;8428582;28;20040;-73
2022/01/24 06:46:14;;;;;;;31.13;13.75;;;;;;;;;;8443440;28;20089;-73
2022/01/24 06:50:16;;;;;;;38.70;16.58;;;;;;;;;;8426078;28;20076;-73
2022/01/24 06:54:19;;;;;;;39.15;17.48;;;;;;;;;;8434987;28;20048;-73
2022/01/24 06:58:22;;;;;;;58.78;20.35;;;;;;;;;;8440664;28;20403;-73
2022/01/24 07:02:26;;;;;;;104.32;35.42;;;;;;;;;;8456553;28;20076;-73
2022/01/24 07:06:29;;;;;;;172.68;62.35;;;;;;;;;;8445146;28;20048;-74
2022/01/24 07:10:33;;;;;;;129.80;46.67;;;;;;;;;;8433846;28;20071;-74
2022/01/24 07:14:37;;;;;;;118.68;39.90;;;;;;;;;;8433245;28;20058;-73
2022/01/24 07:19:02;;;;;;;31.02;14.57;;;;;;;;;;8452380;28;20044;-73
2022/01/24 07:23:05;;;;;;;45.08;19.10;;;;;;;;;;8450602;28;20054;-73
2022/01/24 07:27:08;;;;;;;95.57;37.22;;;;;;;;;;8452082;28;20093;-73
2022/01/24 07:31:10;;;;;;;32.83;18.50;;;;;;;;;;8450875;28;20102;-75
2022/01/24 07:35:14;;;;;;;88.30;29.95;;;;;;;;;;8430012;28;20044;-73
2022/01/24 07:39:24;;;;;;;80.72;30.00;;;;;;;;;;8445517;28;20047;-74
2022/01/24 07:43:26;;;;;;;60.55;26.55;;;;;;;;;;8446399;28;20040;-73
2022/01/24 07:47:30;;;;;;;70.03;24.55;;;;;;;;;;8448093;28;20054;-73
2022/01/24 07:51:35;;;;;;;119.80;34.15;;;;;;;;;;8453990;28;20048;-75
2022/01/24 07:55:39;;;;;;;88.25;31.83;;;;;;;;;;8449631;28;20063;-74
2022/01/24 07:59:42;;;;;;;47.80;22.58;;;;;;;;;;8449761;28;20055;-73
2022/01/24 08:03:46;;;;;;;64.30;27.92;;;;;;;;;;8465200;28;20510;-74
2022/01/24 08:07:58;;;;;;;59.75;22.92;;;;;;;;;;8452184;28;20093;-72
2022/01/24 08:12:01;;;;;;;;;;;;;;;;;;8449200;28;20036;-73
2022/01/24 08:16:05;;;;;;;41.35;16.15;;;;;;;;;;8451252;28;20010;-76
2022/01/24 08:20:09;;;;;;;36.63;15.35;;;;;;;;;;8468479;28;20069;-75
2022/01/24 08:24:13;;;;;;;34.50;16.90;;;;;;;;;;8467378;28;20044;-72
2022/01/24 08:28:16;;;;;;;41.00;20.42;;;;;;;;;;8467808;28;20063;-73
2022/01/24 08:32:20;;;;;;;36.90;17.27;;;;;;;;;;8468285;28;20044;-73
2022/01/24 08:36:23;;;;;;;41.38;16.40;;;;;;;;;;8467641;28;20047;-74
2022/01/24 08:40:30;;;;;;;43.08;17.25;;;;;;;;;;8467757;28;20067;-74
2022/01/24 08:45:43;;;;;;;32.90;15.25;;;;;;;;;;8468090;28;20465;-72
2022/01/24 08:48:58;;;;;;;40.28;18.35;;;;;;;;;;8455078;28;20127;-72
2022/01/24 08:53:03;;;;;;;43.35;21.23;;;;;;;;;;8466894;28;20051;-72
2022/01/24 08:57:08;;;;;;;35.20;15.02;;;;;;;;;;8466823;28;20074;-73
2022/01/24 09:01:12;;;;;;;36.83;18.70;;;;;;;;;;8466819;28;20043;-73
2022/01/24 09:05:14;;;;;;;49.20;24.48;;;;;;;;;;8466752;28;20424;-72
2022/01/24 09:09:17;;;;;;;33.70;18.23;;;;;;;;;;8466446;28;20050;-74
2022/01/24 09:13:23;;;;;;;232.15;89.32;;;;;;;;;;8466899;28;20484;-73
2022/01/24 09:17:28;;;;;;;51.83;19.45;;;;;;;;;;8448116;28;20048;-73
2022/01/24 09:21:34;;;;;;;47.13;18.30;;;;;;;;;;8466066;28;20040;-74
2022/01/24 09:25:38;;;;;;;86.45;28.92;;;;;;;;;;8452800;28;20055;-74
2022/01/24 09:29:44;;;;;;;51.47;24.75;;;;;;;;;;8431899;28;20056;-73
2022/01/24 09:33:47;;;;;;;42.75;18.17;;;;;;;;;;8442661;28;20485;-72
2022/01/24 09:37:54;;;;;;;34.33;15.00;;;;;;;;;;8466095;28;20077;-71
2022/01/24 09:41:59;;;;;;;26.27;12.77;;;;;;;;;;8465841;28;20130;-72
2022/01/24 09:46:04;;;;;;;61.17;21.73;;;;;;;;;;8465422;28;20436;-72
2022/01/24 09:50:10;;;;;;;45.70;17.40;;;;;;;;;;8464998;28;20131;-72
2022/01/24 09:54:14;;;;;;;43.50;16.85;;;;;;;;;;8465145;28;20101;-72
2022/01/24 09:58:21;;;;;;;78.95;28.70;;;;;;;;;;8464729;28;20513;-73
2022/01/24 10:02:28;;;;;;;81.22;32.42;;;;;;;;;;8464472;28;20051;-77
2022/01/24 10:06:59;;;;;;;38.58;15.60;;;;;;;;;;8464772;28;20488;-71
2022/01/24 10:11:06;;;;;;;83.47;29.95;;;;;;;;;;8464461;28;20040;-71
2022/01/24 10:19:37;;;;;;;42.38;17.38;;;;;;;;;;8464352;28;20044;-72
2022/01/24 10:23:47;;;;;;;51.42;20.67;;;;;;;;;;8464250;28;20048;-71
2022/01/24 10:28:00;;;;;;;53.58;21.10;;;;;;;;;;8463765;28;20055;-71
2022/01/24 10:32:10;;;;;;;;;;;;;;;;;;8464096;28;20044;-77
2022/01/24 10:36:39;;;;;;;35.85;15.35;;;;;;;;;;8464270;28;20276;-74
2022/01/24 10:40:50;;;;;;;32.90;14.23;;;;;;;;;;8463298;28;20051;-72
2022/01/24 10:44:54;;;;;;;53.85;21.13;;;;;;;;;;8463284;28;20075;-73
2022/01/24 10:49:04;;;;;;;33.80;16.58;;;;;;;;;;8445552;28;20078;-72
2022/01/24 10:53:14;;;;;;;44.00;17.05;;;;;;;;;;8464018;28;20066;-72
2022/01/24 10:57:26;;;;;;;36.67;14.75;;;;;;;;;;8463878;28;20063;-72
2022/01/24 11:01:30;;;;;;;47.40;18.02;;;;;;;;;;8463130;28;20055;-72
2022/01/24 11:05:36;;;;;;;46.75;19.85;;;;;;;;;;8459538;28;20054;-72
2022/01/24 11:09:42;;;;;;;41.67;19.67;;;;;;;;;;8453135;28;20055;-73
2022/01/24 11:13:59;;;;;;;38.20;16.42;;;;;;;;;;8438728;28;20044;-71
2022/01/24 11:18:14;;;;;;;51.90;19.65;;;;;;;;;;8442101;28;20046;-72
2022/01/24 11:22:40;;;;;;;42.85;18.15;;;;;;;;;;8431951;28;20044;-71
2022/01/24 11:26:54;;;;;;;58.67;22.98;;;;;;;;;;8435622;28;20036;-72
2022/01/24 11:31:15;;;;;;;52.90;20.17;;;;;;;;;;8435777;28;20140;-73
2022/01/24 11:35:43;;;;;;;47.70;20.50;;;;;;;;;;8435850;28;20036;-72
2022/01/24 11:40:02;;;;;;;56.53;20.35;;;;;;;;;;8443391;28;20039;-72
2022/01/24 11:44:16;;;;;;;64.53;24.33;;;;;;;;;;8462001;28;20062;-72
2022/01/24 11:48:43;;;;;;;121.35;37.22;;;;;;;;;;8456823;28;20976;-71
2022/01/24 11:53:01;;;;;;;55.88;21.33;;;;;;;;;;8467962;28;20047;-72
2022/01/24 11:57:49;;;;;;;79.45;32.20;;;;;;;;;;8460809;28;20048;-71
2022/01/24 12:02:19;;;;;;;80.47;31.33;;;;;;;;;;8453656;28;20047;-73
2022/01/24 12:06:33;;;;;;;43.83;19.75;;;;;;;;;;8436117;28;20051;-72
2022/01/24 12:10:59;;;;;;;37.08;16.08;;;;;;;;;;8454387;28;20054;-75
2022/01/24 12:15:30;;;;;;;118.43;28.73;;;;;;;;;;8463797;28;20039;-73
2022/01/24 12:19:37;;;;;;;39.78;17.77;;;;;;;;;;8452083;28;20093;-72
2022/01/24 12:23:42;;;;;;;58.60;27.90;;;;;;;;;;8467549;28;20043;-72
2022/01/24 12:28:23;;;;;;;71.80;25.50;;;;;;;;;;8463425;28;20139;-72
2022/01/24 12:32:28;;;;;;;35.22;16.23;;;;;;;;;;8448804;28;20086;-72
2022/01/24 12:37:00;;;;;;;135.52;36.72;;;;;;;;;;8466090;28;20116;-73
2022/01/24 12:41:17;;;;;;;74.22;27.58;;;;;;;;;;8466161;28;20039;-72
2022/01/24 12:49:44;;;;;;;77.30;27.17;;;;;;;;;;8466496;28;20055;-72
2022/01/24 12:53:50;;;;;;;58.35;22.52;;;;;;;;;;8460980;28;20069;-73
2022/01/24 12:57:54;;;;;;;44.05;18.05;;;;;;;;;;8433920;28;20048;-72
2022/01/24 13:02:00;;;;;;;50.00;20.50;;;;;;;;;;8440223;28;20071;-72
2022/01/24 13:06:14;;;;;;;48.58;18.30;;;;;;;;;;8417342;28;20043;-71
2022/01/24 13:10:21;;;;;;;39.42;17.00;;;;;;;;;;8433151;28;20078;-71
2022/01/24 13:14:35;;;;;;;41.88;17.98;;;;;;;;;;8454057;28;20043;-72
2022/01/24 13:23:12;;;;;;;48.92;20.27;;;;;;;;;;8442155;28;20040;-71
2022/01/24 13:27:36;;;;;;;45.77;17.30;;;;;;;;;;8451056;28;20047;-71
2022/01/24 13:31:41;;;;;;;39.40;16.40;;;;;;;;;;8401861;28;20054;-72
2022/01/24 13:35:47;;;;;;;49.10;19.05;;;;;;;;;;8423794;28;20476;-72
2022/01/24 13:39:55;;;;;;;38.47;17.98;;;;;;;;;;8391917;28;20481;-71
2022/01/24 13:44:04;;;;;;;265.17;80.35;;;;;;;;;;8405053;28;20487;-71
2022/01/24 13:48:18;;;;;;;183.35;48.15;;;;;;;;;;8403308;28;20400;-71
2022/01/24 13:52:25;;;;;;;53.80;19.08;;;;;;;;;;8398262;28;20066;-71
2022/01/24 13:56:31;;;;;;;38.47;15.45;;;;;;;;;;8397852;28;20094;-71
2022/01/24 14:00:35;;;;;;;36.20;15.70;;;;;;;;;;8407160;28;20052;-71
2022/01/24 14:04:41;;;;;;;32.40;14.27;;;;;;;;;;8408740;28;20044;-71
2022/01/24 14:08:45;;;;;;;93.50;35.67;;;;;;;;;;8422275;28;20096;-72
2022/01/24 14:12:52;;;;;;;115.43;35.17;;;;;;;;;;8431154;28;20055;-73
2022/01/24 14:17:06;;;;;;;164.35;44.30;;;;;;;;;;8430889;28;20078;-72
2022/01/24 14:21:13;;;;;;;46.28;20.05;;;;;;;;;;8431297;28;20475;-71
2022/01/24 14:25:19;;;;;;;38.22;13.93;;;;;;;;;;8430592;28;20039;-72
2022/01/24 14:29:22;;;;;;;217.20;93.05;;;;;;;;;;8447143;28;20055;-71
2022/01/24 14:33:32;;;;;;;47.85;18.27;;;;;;;;;;8464549;28;20043;-71
2022/01/24 14:37:49;;;;;;;51.45;25.90;;;;;;;;;;8464286;28;20479;-71
2022/01/24 14:41:54;;;;;;;59.10;34.03;;;;;;;;;;8458040;28;20451;-72
2022/01/24 14:46:01;;;;;;;39.80;17.45;;;;;;;;;;8438081;28;20054;-72
2022/01/24 14:50:07;;;;;;;41.22;19.83;;;;;;;;;;8464334;28;20058;-71
2022/01/24 14:54:14;;;;;;;56.08;31.17;;;;;;;;;;8463691;28;20064;-72
2022/01/24 14:58:20;;;;;;;49.22;21.65;;;;;;;;;;8460796;28;20036;-73
2022/01/24 15:02:31;;;;;;;80.90;25.60;;;;;;;;;;8447290;28;20048;-71
2022/01/24 15:06:44;;;;;;;163.18;50.25;;;;;;;;;;8441879;28;20149;-71
2022/01/24 15:10:51;;;;;;;107.68;29.67;;;;;;;;;;8429939;28;20395;-71
2022/01/24 15:15:01;;;;;;;88.82;25.83;;;;;;;;;;8441205;28;20056;-73
2022/01/24 15:27:57;;;;;;;83.88;28.02;;;;;;;;;;8458921;28;20448;-73
2022/01/24 15:32:12;;;;;;;77.45;23.98;;;;;;;;;;8448790;28;20101;-71
2022/01/24 15:36:17;;;;;;;105.35;34.17;;;;;;;;;;8446655;28;20123;-71
2022/01/24 15:40:24;;;;;;;137.60;41.65;;;;;;;;;;8461939;28;20407;-74
2022/01/24 15:44:48;;;;;;;174.45;53.60;;;;;;;;;;8451648;28;20407;-73
2022/01/24 15:48:58;;;;;;;59.50;20.15;;;;;;;;;;8444554;28;20134;-73
2022/01/24 15:53:04;;;;;;;140.02;31.15;;;;;;;;;;8454059;28;20108;-72
2022/01/24 16:01:29;;;;;;;153.68;44.92;;;;;;;;;;8432996;28;20105;-73
2022/01/24 16:05:33;;;;;;;80.93;32.38;;;;;;;;;;8455414;28;20110;-76
2022/01/24 16:09:36;;;;;;;59.05;24.42;;;;;;;;;;8467535;28;20146;-76
2022/01/24 16:13:41;;;;;;;55.38;20.70;;;;;;;;;;8465923;28;20046;-73
2022/01/24 16:17:44;;;;;;;105.82;30.50;;;;;;;;;;8467555;28;20044;-71
2022/01/24 16:22:00;;;;;;;58.67;23.55;;;;;;;;;;8468957;28;20138;-72
2022/01/24 16:26:06;;;;;;;61.10;24.83;;;;;;;;;;8468235;28;20036;-72
2022/01/24 16:30:14;;;;;;;46.03;17.88;;;;;;;;;;8464306;28;20139;-72
2022/01/24 16:34:20;;;;;;;47.22;19.13;;;;;;;;;;8449625;28;20056;-75
2022/01/24 16:38:27;;;;;;;41.33;18.50;;;;;;;;;;8437760;28;20044;-72
2022/01/24 16:42:35;;;;;;;43.65;18.83;;;;;;;;;;8451681;28;20513;-71
2022/01/24 16:51:11;;;;;;;41.67;18.15;;;;;;;;;;8467413;28;20044;-73
2022/01/24 16:55:16;;;;;;;30.88;15.70;;;;;;;;;;8467158;28;20050;-71
2022/01/24 16:59:19;;;;;;;37.30;17.08;;;;;;;;;;8454332;28;20046;-72
2022/01/24 17:03:26;;;;;;;58.97;23.77;;;;;;;;;;8449657;28;20050;-72
2022/01/24 17:07:29;;;;;;;42.72;15.98;;;;;;;;;;8432917;28;20078;-72
2022/01/24 17:11:34;;;;;;;62.40;23.77;;;;;;;;;;8437740;28;20093;-71
2022/01/24 17:15:45;;;;;;;65.65;23.52;;;;;;;;;;8436786;28;20048;-71
2022/01/24 17:19:50;;;;;;;163.10;54.92;;;;;;;;;;8443453;28;20098;-71
2022/01/24 17:23:54;;;;;;;41.95;17.95;;;;;;;;;;8447333;28;20077;-72
2022/01/24 17:27:58;;;;;;;82.78;30.20;;;;;;;;;;8438141;28;20052;-71
2022/01/24 17:32:01;;;;;;;36.83;16.30;;;;;;;;;;8455116;28;20044;-71
2022/01/24 17:36:08;;;;;;;48.40;21.13;;;;;;;;;;8453663;28;20040;-71
2022/01/24 17:40:15;;;;;;;51.92;24.55;;;;;;;;;;8459428;28;20040;-72
2022/01/24 17:44:18;;;;;;;62.95;25.75;;;;;;;;;;8453994;28;20571;-72
2022/01/24 17:48:23;;;;;;;65.28;23.77;;;;;;;;;;8442450;28;20040;-71
2022/01/24 17:52:27;;;;;;;58.05;28.60;;;;;;;;;;8451943;28;20051;-72
2022/01/24 17:56:32;;;;;;;107.00;41.50;;;;;;;;;;8456707;28;20047;-72
2022/01/24 18:00:37;;;;;;;57.78;25.55;;;;;;;;;;8445905;28;20138;-71
2022/01/24 18:04:41;;;;;;;61.78;26.95;;;;;;;;;;8439806;28;20063;-75
2022/01/24 18:08:46;;;;;;;45.95;20.08;;;;;;;;;;8441875;28;20036;-70
2022/01/24 18:12:50;;;;;;;45.35;20.10;;;;;;;;;;8413434;28;20054;-70
2022/01/24 18:16:53;;;;;;;58.17;23.88;;;;;;;;;;8444487;28;20051;-71
2022/01/24 18:20:57;;;;;;;47.92;19.58;;;;;;;;;;8436140;28;20092;-71
2022/01/24 18:25:04;;;;;;;47.40;21.20;;;;;;;;;;8440818;28;20093;-71
2022/01/24 18:29:15;;;;;;;44.60;20.85;;;;;;;;;;8445440;28;20056;-71
2022/01/24 18:33:25;;;;;;;66.38;32.85;;;;;;;;;;8438569;28;20105;-71
2022/01/24 18:37:36;;;;;;;68.63;31.98;;;;;;;;;;8457263;28;20093;-71
2022/01/24 18:41:57;;;;;;;109.90;40.50;;;;;;;;;;8435217;28;20052;-74
2022/01/24 18:46:05;;;;;;;53.60;23.58;;;;;;;;;;8453629;28;20040;-71
2022/01/24 18:50:10;;;;;;;46.30;24.30;;;;;;;;;;8453323;28;20047;-70
2022/01/24 18:54:13;;;;;;;114.38;38.58;;;;;;;;;;8464159;28;20048;-71
2022/01/24 18:58:20;;;;;;;98.75;33.25;;;;;;;;;;8439491;28;20040;-70
2022/01/24 19:02:24;;;;;;;53.65;21.42;;;;;;;;;;8430048;28;20123;-72
2022/01/24 19:06:27;;;;;;;47.92;21.70;;;;;;;;;;8429825;28;20043;-74
2022/01/24 19:10:34;;;;;;;50.60;22.70;;;;;;;;;;8430405;28;20502;-71
2022/01/24 19:14:41;;;;;;;51.55;22.95;;;;;;;;;;8432535;28;20043;-72
2022/01/24 19:18:57;;;;;;;60.45;22.90;;;;;;;;;;8443668;28;20048;-71
2022/01/24 19:23:17;;;;;;;46.30;20.58;;;;;;;;;;8429756;28;20156;-71
2022/01/24 19:27:20;;;;;;;49.80;21.02;;;;;;;;;;8429596;28;20378;-72
2022/01/24 19:31:29;;;;;;;53.22;22.90;;;;;;;;;;8429274;28;20064;-71
2022/01/24 19:35:33;;;;;;;135.90;49.20;;;;;;;;;;8429414;28;20396;-71
2022/01/24 19:39:36;;;;;;;81.22;29.08;;;;;;;;;;8432996;28;20445;-70
2022/01/24 19:43:41;;;;;;;49.50;20.02;;;;;;;;;;8448572;28;20437;-73
2022/01/24 19:47:48;;;;;;;65.60;24.67;;;;;;;;;;8417889;28;20044;-70
2022/01/24 19:51:54;;;;;;;70.50;26.27;;;;;;;;;;8438106;28;20123;-70
2022/01/24 19:56:04;;;;;;;116.43;41.85;;;;;;;;;;8440045;28;20060;-71
2022/01/24 20:00:09;;;;;;;56.22;26.75;;;;;;;;;;8455204;28;20055;-73
2022/01/24 20:04:14;;;;;;;92.80;40.25;;;;;;;;;;8468751;28;20050;-72
2022/01/24 20:08:18;;;;;;;83.97;30.33;;;;;;;;;;8456065;28;20120;-71
2022/01/24 20:12:23;;;;;;;74.50;32.40;;;;;;;;;;8434672;28;20072;-71
2022/01/24 20:16:26;;;;;;;66.30;23.77;;;;;;;;;;8435240;28;20389;-71
2022/01/24 20:20:31;;;;;;;60.88;25.60;;;;;;;;;;8436225;28;20080;-71
2022/01/24 20:24:42;;;;;;;53.88;22.85;;;;;;;;;;8443287;28;20495;-70
2022/01/24 20:28:45;;;;;;;49.80;20.15;;;;;;;;;;8423246;28;20059;-70
2022/01/24 20:32:52;;;;;;;53.80;22.60;;;;;;;;;;8401143;28;20044;-70
2022/01/24 20:36:58;;;;;;;58.42;25.10;;;;;;;;;;8400859;28;20052;-70
2022/01/24 20:41:02;;;;;;;65.25;24.73;;;;;;;;;;8419425;28;20109;-78
2022/01/24 20:45:07;;;;;;;81.78;27.55;;;;;;;;;;8421427;28;20484;-72
2022/01/24 20:49:11;;;;;;;71.20;26.33;;;;;;;;;;8415866;28;20043;-71
2022/01/24 20:53:15;;;;;;;64.97;22.70;;;;;;;;;;8432997;28;20075;-71
2022/01/24 20:57:18;;;;;;;65.60;24.25;;;;;;;;;;8434179;28;20044;-72
2022/01/24 21:01:21;;;;;;;57.00;22.02;;;;;;;;;;8433810;28;20044;-71
2022/01/24 21:05:24;;;;;;;54.67;19.80;;;;;;;;;;8433455;28;20044;-71
2022/01/24 21:09:43;;;;;;;80.50;27.70;;;;;;;;;;8433600;28;20044;-71
2022/01/24 21:13:53;;;;;;;136.70;37.70;;;;;;;;;;8434126;28;20051;-72
2022/01/24 21:17:58;;;;;;;71.15;28.23;;;;;;;;;;8433080;28;20051;-75
2022/01/24 21:22:04;;;;;;;55.10;22.05;;;;;;;;;;8433759;28;20411;-71
2022/01/24 21:26:14;;;;;;;88.53;31.35;;;;;;;;;;8432825;28;20048;-72
2022/01/24 21:30:21;;;;;;;63.05;24.30;;;;;;;;;;8456692;28;20067;-71
2022/01/24 21:34:37;;;;;;;60.65;24.70;;;;;;;;;;8466195;28;20047;-71
2022/01/24 21:38:40;;;;;;;63.53;24.88;;;;;;;;;;8466187;28;20100;-72
2022/01/24 21:42:46;;;;;;;78.38;32.30;;;;;;;;;;8466031;28;20031;-71
2022/01/24 21:46:49;;;;;;;72.88;30.02;;;;;;;;;;8465932;28;20407;-72
2022/01/24 21:50:53;;;;;;;67.93;25.65;;;;;;;;;;8465588;28;20048;-71
2022/01/24 21:54:57;;;;;;;60.15;24.95;;;;;;;;;;8465585;28;20104;-71
2022/01/24 21:59:02;;;;;;;77.43;30.83;;;;;;;;;;8466130;28;20451;-71
2022/01/24 22:03:06;;;;;;;72.15;30.33;;;;;;;;;;8465404;28;20043;-72
2022/01/24 22:07:13;;;;;;;70.45;26.83;;;;;;;;;;8464981;28;20054;-71
2022/01/24 22:11:17;;;;;;;73.75;27.73;;;;;;;;;;8465537;28;20126;-72
2022/01/24 22:15:23;;;;;;;82.03;30.20;;;;;;;;;;8465119;28;20047;-71
2022/01/24 22:19:26;;;;;;;73.38;26.63;;;;;;;;;;8465465;28;20040;-75
2022/01/24 22:23:35;;;;;;;81.63;29.83;;;;;;;;;;8464752;28;20674;-74
2022/01/24 22:27:39;;;;;;;93.07;33.22;;;;;;;;;;8464908;28;20396;-71
2022/01/24 22:31:42;;;;;;;146.73;45.80;;;;;;;;;;8464993;28;20157;-72
2022/01/24 22:35:46;;;;;;;126.35;47.58;;;;;;;;;;8464399;28;20055;-72
2022/01/24 22:39:49;;;;;;;217.65;82.18;;;;;;;;;;8464796;28;20066;-72
2022/01/24 22:43:54;;;;;;;147.98;55.42;;;;;;;;;;8464248;28;20047;-72
2022/01/24 22:47:58;;;;;;;96.13;35.75;;;;;;;;;;8464163;28;20048;-71
2022/01/24 22:52:02;;;;;;;73.95;28.65;;;;;;;;;;8464393;28;20047;-72
2022/01/24 22:56:06;;;;;;;89.15;34.78;;;;;;;;;;8464424;28;20458;-71
2022/01/24 23:00:23;;;;;;;90.47;36.80;;;;;;;;;;8464307;28;20048;-71
2022/01/24 23:04:27;;;;;;;160.68;49.88;;;;;;;;;;8464298;28;20044;-71
2022/01/24 23:08:30;;;;;;;90.50;32.47;;;;;;;;;;8463713;28;20096;-72
2022/01/24 23:12:33;;;;;;;87.93;32.50;;;;;;;;;;8463726;28;20040;-71
2022/01/24 23:20:57;;;;;;;92.03;35.97;;;;;;;;;;8470876;28;20122;-74
2022/01/24 23:25:02;;;;;;;130.82;41.33;;;;;;;;;;8470486;28;20043;-72
2022/01/24 23:29:08;;;;;;;123.80;36.90;;;;;;;;;;8471362;28;20052;-74
2022/01/24 23:33:23;;;;;;;90.22;34.58;;;;;;;;;;8470798;28;20130;-73
2022/01/24 23:41:49;;;;;;;108.50;37.57;;;;;;;;;;8470477;28;20127;-72
2022/01/24 23:45:56;;;;;;;90.00;34.67;;;;;;;;;;8470263;28;20164;-72
2022/01/24 23:49:59;;;;;;;100.72;35.45;;;;;;;;;;8469623;28;20051;-77
2022/01/24 23:54:04;;;;;;;116.50;38.17;;;;;;;;;;8469550;28;20072;-73
2022/01/24 23:58:25;;;;;;;93.80;34.03;;;;;;;;;;8469475;28;20046;-73
